Time;durP1;ratioP1;P1;durP2;ratioP2;P2;SDS_P1;SDS_P2;PMS_P1;PMS_P2;Temp;Humidity;BMP_temperature;BMP_pressure;BME280_temperature;BME280_humidity;BME280_pressure;Samples;Min_cycle;Max_cycle;Signal;HPM_P1;HPM_P2
2023/03/02 00:00:26;;;;;;;31.08;22.85;;;;;;;;;;5099052;28;20035;-67
2023/03/02 00:02:53;;;;;;;34.65;25.00;;;;;;;;;;5097019;28;20156;-68
2023/03/02 00:05:19;;;;;;;35.00;23.83;;;;;;;;;;5080007;28;20040;-68
2023/03/02 00:07:45;;;;;;;29.25;21.77;;;;;;;;;;5098259;28;20112;-68
2023/03/02 00:10:11;;;;;;;29.30;20.95;;;;;;;;;;5080714;28;20078;-68
2023/03/02 00:12:37;;;;;;;31.05;20.85;;;;;;;;;;5097925;28;20398;-68
2023/03/02 00:15:04;;;;;;;30.40;21.38;;;;;;;;;;5065505;28;20039;-68
2023/03/02 00:17:30;;;;;;;25.83;18.95;;;;;;;;;;5081378;28;20483;-68
2023/03/02 00:20:10;;;;;;;29.42;20.33;;;;;;;;;;5096546;28;20352;-68
2023/03/02 00:22:38;;;;;;;28.88;18.55;;;;;;;;;;5097491;28;20054;-68
2023/03/02 00:25:04;;;;;;;24.85;17.45;;;;;;;;;;5079469;28;20046;-68
2023/03/02 00:27:31;;;;;;;25.00;17.77;;;;;;;;;;5099072;28;20039;-68
2023/03/02 00:29:57;;;;;;;23.27;17.80;;;;;;;;;;5081276;28;20051;-68
2023/03/02 00:32:23;;;;;;;23.48;16.80;;;;;;;;;;5097265;28;20138;-68
2023/03/02 00:34:50;;;;;;;23.90;15.98;;;;;;;;;;5096205;28;20091;-68
2023/03/02 00:37:16;;;;;;;21.73;15.60;;;;;;;;;;5096393;28;20051;-68
2023/03/02 00:39:42;;;;;;;26.63;17.77;;;;;;;;;;5089766;28;21386;-68
2023/03/02 00:42:08;;;;;;;22.40;16.63;;;;;;;;;;5073068;28;20048;-68
2023/03/02 00:44:35;;;;;;;18.10;14.60;;;;;;;;;;5079624;28;20040;-68
2023/03/02 00:47:01;;;;;;;21.50;14.13;;;;;;;;;;5095188;28;20044;-68
2023/03/02 00:49:27;;;;;;;19.45;12.98;;;;;;;;;;5078088;28;20047;-68
2023/03/02 00:51:53;;;;;;;19.52;13.02;;;;;;;;;;5080013;28;20039;-68
2023/03/02 00:54:19;;;;;;;21.90;13.43;;;;;;;;;;5096387;28;20046;-68
2023/03/02 00:56:45;;;;;;;18.30;12.98;;;;;;;;;;5097685;28;20066;-68
2023/03/02 00:59:29;;;;;;;20.80;13.80;;;;;;;;;;5098437;28;20043;-68
2023/03/02 01:01:58;;;;;;;18.57;11.53;;;;;;;;;;5097098;28;20048;-68
2023/03/02 01:04:28;;;;;;;22.92;14.63;;;;;;;;;;5095293;28;20043;-68
2023/03/02 01:06:55;;;;;;;22.67;14.88;;;;;;;;;;5077731;28;20545;-68
2023/03/02 01:09:22;;;;;;;23.30;15.55;;;;;;;;;;5076975;28;20139;-68
2023/03/02 01:11:48;;;;;;;22.13;14.02;;;;;;;;;;5078262;28;20384;-68
2023/03/02 01:14:14;;;;;;;20.25;12.82;;;;;;;;;;5072691;28;20074;-68
2023/03/02 01:16:40;;;;;;;18.85;13.32;;;;;;;;;;5080367;28;20166;-68
2023/03/02 01:19:07;;;;;;;19.80;12.60;;;;;;;;;;5078789;28;21308;-68
2023/03/02 01:21:33;;;;;;;18.25;13.55;;;;;;;;;;5094048;28;20069;-68
2023/03/02 01:23:59;;;;;;;25.70;13.10;;;;;;;;;;5095647;28;20139;-68
2023/03/02 01:26:25;;;;;;;19.27;12.23;;;;;;;;;;5061281;28;20104;-68
2023/03/02 01:28:54;;;;;;;17.70;12.18;;;;;;;;;;5080170;28;20040;-68
2023/03/02 01:31:21;;;;;;;19.15;12.35;;;;;;;;;;5096065;28;20078;-68
2023/03/02 01:33:47;;;;;;;18.15;11.48;;;;;;;;;;5096394;28;20043;-68
2023/03/02 01:36:13;;;;;;;17.27;11.25;;;;;;;;;;5078929;28;20054;-68
2023/03/02 01:38:40;;;;;;;19.90;11.55;;;;;;;;;;5077246;28;20474;-68
2023/03/02 01:41:06;;;;;;;20.13;11.25;;;;;;;;;;5077645;28;20126;-68
2023/03/02 01:43:32;;;;;;;18.35;10.93;;;;;;;;;;5096395;28;20054;-68
2023/03/02 01:46:02;;;;;;;17.35;11.68;;;;;;;;;;5077306;28;20138;-68
2023/03/02 01:48:31;;;;;;;19.58;11.23;;;;;;;;;;5094938;28;20066;-68
2023/03/02 01:50:57;;;;;;;16.00;10.82;;;;;;;;;;5099248;28;20036;-68
2023/03/02 01:53:25;;;;;;;16.75;11.57;;;;;;;;;;5081996;28;20065;-68
2023/03/02 01:55:51;;;;;;;19.95;11.85;;;;;;;;;;5080639;28;20100;-68
2023/03/02 01:58:17;;;;;;;17.27;11.95;;;;;;;;;;5097545;28;20043;-68
2023/03/02 02:00:45;;;;;;;17.90;11.82;;;;;;;;;;5080139;28;20134;-69
2023/03/02 02:03:14;;;;;;;17.92;12.25;;;;;;;;;;5096152;28;20039;-68
2023/03/02 02:05:42;;;;;;;16.38;11.18;;;;;;;;;;5097643;28;20354;-68
2023/03/02 02:08:09;;;;;;;17.35;10.98;;;;;;;;;;5097752;28;20081;-68
2023/03/02 02:10:36;;;;;;;16.85;12.20;;;;;;;;;;5096663;28;20061;-68
2023/03/02 02:13:02;;;;;;;17.52;11.70;;;;;;;;;;5097502;28;20063;-68
2023/03/02 02:15:28;;;;;;;18.10;11.60;;;;;;;;;;5097386;28;20390;-68
2023/03/02 02:17:55;;;;;;;20.30;12.25;;;;;;;;;;5100408;28;20426;-68
2023/03/02 02:20:31;;;;;;;17.20;11.52;;;;;;;;;;5096450;28;20062;-68
2023/03/02 02:23:05;;;;;;;18.90;12.23;;;;;;;;;;5096428;28;20131;-68
2023/03/02 02:25:31;;;;;;;;;;;;;;;;;;5096482;28;20482;-68
2023/03/02 02:27:57;;;;;;;16.35;11.25;;;;;;;;;;5095894;28;19920;-68
2023/03/02 02:30:24;;;;;;;18.88;13.68;;;;;;;;;;5081535;28;20495;-68
2023/03/02 02:32:51;;;;;;;20.25;13.13;;;;;;;;;;5099096;28;20543;-68
2023/03/02 02:35:20;;;;;;;20.33;14.00;;;;;;;;;;5097112;28;20571;-68
2023/03/02 02:37:49;;;;;;;23.52;14.40;;;;;;;;;;5095727;28;20066;-68
2023/03/02 02:40:18;;;;;;;21.90;14.43;;;;;;;;;;5096616;28;20063;-68
2023/03/02 02:42:46;;;;;;;27.42;15.25;;;;;;;;;;5096801;28;20108;-68
2023/03/02 02:45:19;;;;;;;26.23;15.73;;;;;;;;;;5097671;28;20043;-68
2023/03/02 02:47:46;;;;;;;23.27;15.37;;;;;;;;;;5077165;28;20047;-66
2023/03/02 02:50:22;;;;;;;31.98;17.13;;;;;;;;;;5097142;28;20039;-68
2023/03/02 02:52:51;;;;;;;24.88;15.10;;;;;;;;;;5080643;28;20413;-68
2023/03/02 02:55:20;;;;;;;23.27;15.25;;;;;;;;;;5097099;28;20040;-68
2023/03/02 02:57:46;;;;;;;27.52;16.65;;;;;;;;;;5060616;28;20040;-68
2023/03/02 03:00:17;;;;;;;24.95;15.98;;;;;;;;;;5096717;28;20061;-68
2023/03/02 03:02:45;;;;;;;29.08;16.65;;;;;;;;;;5078156;28;20437;-68
2023/03/02 03:05:14;;;;;;;33.33;18.67;;;;;;;;;;5094882;28;20508;-68
2023/03/02 03:07:40;;;;;;;33.50;18.48;;;;;;;;;;5078399;28;20104;-68
2023/03/02 03:10:06;;;;;;;35.53;20.05;;;;;;;;;;5097179;28;20046;-68
2023/03/02 03:12:33;;;;;;;43.55;21.38;;;;;;;;;;5097046;28;21170;-68
2023/03/02 03:15:00;;;;;;;47.88;22.65;;;;;;;;;;5096318;28;20044;-68
2023/03/02 03:17:26;;;;;;;48.13;23.02;;;;;;;;;;5076508;28;20058;-67
2023/03/02 03:19:52;;;;;;;53.47;25.02;;;;;;;;;;5098034;28;20048;-68
2023/03/02 03:22:19;;;;;;;54.53;25.25;;;;;;;;;;5097491;28;20123;-68
2023/03/02 03:24:45;;;;;;;54.45;25.02;;;;;;;;;;5098861;28;20185;-68
2023/03/02 03:27:13;;;;;;;53.35;26.70;;;;;;;;;;5098002;28;20105;-68
2023/03/02 03:29:40;;;;;;;56.20;26.55;;;;;;;;;;5098791;28;20035;-68
2023/03/02 03:32:06;;;;;;;55.47;26.38;;;;;;;;;;5080645;28;20047;-68
2023/03/02 03:34:39;;;;;;;50.35;25.50;;;;;;;;;;5098366;28;20042;-68
2023/03/02 03:37:06;;;;;;;51.67;27.60;;;;;;;;;;5096851;28;20160;-68
2023/03/02 03:39:32;;;;;;;53.13;25.45;;;;;;;;;;5098966;28;20126;-68
2023/03/02 03:41:58;;;;;;;48.83;25.25;;;;;;;;;;5076253;28;21199;-68
2023/03/02 03:44:24;;;;;;;48.80;24.75;;;;;;;;;;5098042;28;20036;-68
2023/03/02 03:46:51;;;;;;;48.03;24.63;;;;;;;;;;5097370;28;21113;-68
2023/03/02 03:49:17;;;;;;;45.97;25.20;;;;;;;;;;5098463;28;20078;-68
2023/03/02 03:51:43;;;;;;;39.17;23.00;;;;;;;;;;5098720;28;20044;-68
2023/03/02 03:54:10;;;;;;;43.58;22.77;;;;;;;;;;5083008;28;20054;-68
2023/03/02 03:56:37;;;;;;;43.80;22.67;;;;;;;;;;5081030;28;20731;-68
2023/03/02 03:59:06;;;;;;;36.40;20.42;;;;;;;;;;5080506;28;20058;-68
2023/03/02 04:01:39;;;;;;;37.33;20.70;;;;;;;;;;5096533;28;20106;-68
2023/03/02 04:04:07;;;;;;;34.63;19.50;;;;;;;;;;5096934;28;20070;-68
2023/03/02 04:06:33;;;;;;;36.42;21.05;;;;;;;;;;5096755;28;20051;-68
2023/03/02 04:09:03;;;;;;;32.55;20.98;;;;;;;;;;5097210;28;20476;-68
2023/03/02 04:11:31;;;;;;;38.17;22.38;;;;;;;;;;5097714;28;20048;-68
2023/03/02 04:13:57;;;;;;;37.17;21.80;;;;;;;;;;5078765;28;20074;-68
2023/03/02 04:16:24;;;;;;;35.92;21.77;;;;;;;;;;5099498;28;20042;-67
2023/03/02 04:18:50;;;;;;;37.30;22.83;;;;;;;;;;5097443;28;20611;-67
2023/03/02 04:21:16;;;;;;;40.28;22.75;;;;;;;;;;5094625;28;20050;-67
2023/03/02 04:23:42;;;;;;;40.38;22.88;;;;;;;;;;5098951;28;20039;-67
2023/03/02 04:26:09;;;;;;;36.67;21.42;;;;;;;;;;5097723;28;20092;-67
2023/03/02 04:28:35;;;;;;;40.05;21.85;;;;;;;;;;5098907;28;20046;-67
2023/03/02 04:31:01;;;;;;;39.78;22.85;;;;;;;;;;5099266;28;20044;-67
2023/03/02 04:33:28;;;;;;;42.58;22.95;;;;;;;;;;5097400;28;20097;-67
2023/03/02 04:35:54;;;;;;;41.97;23.30;;;;;;;;;;5097279;28;20050;-67
2023/03/02 04:38:21;;;;;;;42.10;24.38;;;;;;;;;;5097559;28;20386;-67
2023/03/02 04:40:47;;;;;;;55.40;24.75;;;;;;;;;;5076331;28;20499;-67
2023/03/02 04:43:13;;;;;;;62.17;23.38;;;;;;;;;;5077833;28;20050;-67
2023/03/02 04:45:39;;;;;;;51.35;26.25;;;;;;;;;;5059599;28;20043;-68
2023/03/02 04:48:06;;;;;;;42.63;24.05;;;;;;;;;;5096460;28;20047;-67
2023/03/02 04:50:32;;;;;;;40.85;22.98;;;;;;;;;;5096392;28;20044;-67
2023/03/02 04:52:59;;;;;;;68.05;26.27;;;;;;;;;;5100733;28;20168;-68
2023/03/02 04:55:26;;;;;;;55.25;25.92;;;;;;;;;;5097076;28;20050;-68
2023/03/02 04:57:52;;;;;;;72.63;26.13;;;;;;;;;;5097260;28;20051;-68
2023/03/02 05:00:19;;;;;;;66.22;26.77;;;;;;;;;;5096671;28;20086;-68
2023/03/02 05:02:46;;;;;;;44.22;25.20;;;;;;;;;;5077549;28;20451;-68
2023/03/02 05:05:16;;;;;;;55.33;27.50;;;;;;;;;;5096209;28;20039;-68
2023/03/02 05:07:43;;;;;;;55.53;27.88;;;;;;;;;;5096083;28;20051;-68
2023/03/02 05:10:10;;;;;;;60.10;27.35;;;;;;;;;;5077984;28;20051;-68
2023/03/02 05:12:54;;;;;;;53.67;28.15;;;;;;;;;;5096876;28;20127;-68
2023/03/02 05:15:21;;;;;;;56.67;30.33;;;;;;;;;;5095540;28;20182;-69
2023/03/02 05:17:47;;;;;;;55.47;28.90;;;;;;;;;;5079838;28;20122;-69
2023/03/02 05:20:14;;;;;;;54.42;29.83;;;;;;;;;;5093775;28;20123;-68
2023/03/02 05:22:40;;;;;;;66.63;31.65;;;;;;;;;;5077569;28;20071;-68
2023/03/02 05:25:06;;;;;;;55.90;30.25;;;;;;;;;;5094601;28;20047;-68
2023/03/02 05:27:33;;;;;;;59.45;31.98;;;;;;;;;;5098211;28;20491;-68
2023/03/02 05:29:59;;;;;;;66.97;32.38;;;;;;;;;;5093201;28;20043;-68
2023/03/02 05:32:26;;;;;;;62.15;29.23;;;;;;;;;;5096971;28;20370;-68
2023/03/02 05:34:52;;;;;;;75.47;34.70;;;;;;;;;;5095406;28;20169;-69
2023/03/02 05:37:18;;;;;;;78.05;33.35;;;;;;;;;;5077920;28;20513;-68
2023/03/02 05:39:45;;;;;;;82.57;35.78;;;;;;;;;;5094711;28;20131;-68
2023/03/02 05:42:11;;;;;;;84.00;34.05;;;;;;;;;;5097019;28;20049;-68
2023/03/02 05:44:37;;;;;;;94.25;37.20;;;;;;;;;;5078326;28;20096;-68
2023/03/02 05:47:03;;;;;;;88.45;36.60;;;;;;;;;;5101248;28;20040;-68
2023/03/02 05:49:29;;;;;;;86.72;38.22;;;;;;;;;;5095201;28;20514;-68
2023/03/02 05:51:55;;;;;;;109.40;38.65;;;;;;;;;;5095302;28;20055;-68
2023/03/02 05:54:22;;;;;;;107.68;38.65;;;;;;;;;;5094583;28;20390;-68
2023/03/02 05:56:48;;;;;;;101.97;36.97;;;;;;;;;;5093858;28;20051;-68
2023/03/02 05:59:14;;;;;;;96.80;38.63;;;;;;;;;;5095729;28;20422;-82
2023/03/02 06:01:40;;;;;;;97.13;38.05;;;;;;;;;;5095125;28;20105;-68
2023/03/02 06:04:07;;;;;;;92.47;39.17;;;;;;;;;;5075880;28;20051;-68
2023/03/02 06:06:33;;;;;;;108.82;40.47;;;;;;;;;;5096388;28;20489;-69
2023/03/02 06:08:59;;;;;;;106.15;39.20;;;;;;;;;;5095832;28;20138;-69
2023/03/02 06:11:25;;;;;;;114.60;40.83;;;;;;;;;;5097920;28;20539;-68
2023/03/02 06:13:51;;;;;;;126.70;42.35;;;;;;;;;;5101857;28;20058;-70
2023/03/02 06:16:17;;;;;;;143.93;45.42;;;;;;;;;;5103135;28;20075;-69
2023/03/02 06:18:44;;;;;;;116.70;41.65;;;;;;;;;;5100554;28;20036;-69
2023/03/02 06:21:10;;;;;;;115.78;42.83;;;;;;;;;;5080795;28;20077;-69
2023/03/02 06:23:36;;;;;;;120.60;42.88;;;;;;;;;;5100752;28;20043;-69
2023/03/02 06:26:07;;;;;;;111.50;39.60;;;;;;;;;;5101785;28;20089;-68
2023/03/02 06:28:34;;;;;;;95.95;33.58;;;;;;;;;;5097359;28;20101;-68
2023/03/02 06:31:00;;;;;;;94.65;34.63;;;;;;;;;;5099154;28;20057;-68
2023/03/02 06:33:26;;;;;;;98.43;34.85;;;;;;;;;;5082519;28;20047;-68
2023/03/02 06:35:52;;;;;;;99.68;37.00;;;;;;;;;;5102536;28;20035;-69
2023/03/02 06:38:19;;;;;;;99.63;37.05;;;;;;;;;;5102767;28;20541;-69
2023/03/02 06:40:45;;;;;;;93.78;33.83;;;;;;;;;;5079243;28;20734;-69
2023/03/02 06:43:11;;;;;;;101.03;37.17;;;;;;;;;;5080694;28;20075;-69
2023/03/02 06:45:38;;;;;;;108.18;37.20;;;;;;;;;;5079668;28;20112;-69
2023/03/02 06:48:04;;;;;;;107.30;39.83;;;;;;;;;;5080566;28;20441;-70
2023/03/02 06:50:30;;;;;;;91.05;37.33;;;;;;;;;;5080484;28;20097;-69
2023/03/02 06:52:57;;;;;;;87.55;34.13;;;;;;;;;;5081888;28;20124;-69
2023/03/02 06:55:23;;;;;;;92.78;34.25;;;;;;;;;;5082569;28;20036;-70
2023/03/02 06:57:49;;;;;;;108.05;38.20;;;;;;;;;;5086625;28;20135;-70
2023/03/02 07:00:16;;;;;;;101.03;38.40;;;;;;;;;;5088127;28;20063;-69
2023/03/02 07:02:43;;;;;;;103.53;37.88;;;;;;;;;;5089886;28;20044;-69
2023/03/02 07:05:10;;;;;;;99.18;37.47;;;;;;;;;;5086801;28;20052;-68
2023/03/02 07:07:36;;;;;;;107.82;39.92;;;;;;;;;;5085326;28;20747;-68
2023/03/02 07:10:03;;;;;;;104.13;37.90;;;;;;;;;;5085093;28;20068;-69
2023/03/02 07:12:29;;;;;;;97.75;36.58;;;;;;;;;;5084450;28;20039;-69
2023/03/02 07:14:55;;;;;;;101.20;37.90;;;;;;;;;;5076618;28;20178;-68
2023/03/02 07:17:21;;;;;;;107.15;38.83;;;;;;;;;;5083703;28;20061;-69
2023/03/02 07:19:48;;;;;;;96.78;35.97;;;;;;;;;;5084455;28;20063;-82
2023/03/02 07:22:14;;;;;;;111.85;39.65;;;;;;;;;;5083141;28;20067;-67
2023/03/02 07:24:40;;;;;;;93.28;35.30;;;;;;;;;;5080609;28;20246;-67
2023/03/02 07:27:06;;;;;;;111.45;39.40;;;;;;;;;;5081688;28;20123;-67
2023/03/02 07:29:32;;;;;;;99.05;37.40;;;;;;;;;;5082616;28;20353;-67
2023/03/02 07:31:59;;;;;;;100.57;39.80;;;;;;;;;;5080092;28;20281;-67
2023/03/02 07:34:25;;;;;;;101.78;38.33;;;;;;;;;;5077423;28;20059;-68
2023/03/02 07:36:52;;;;;;;107.20;38.35;;;;;;;;;;5080748;28;20076;-68
2023/03/02 07:39:19;;;;;;;114.07;39.40;;;;;;;;;;5084573;28;21258;-68
2023/03/02 07:41:45;;;;;;;102.38;38.10;;;;;;;;;;5082141;28;20731;-68
2023/03/02 07:44:11;;;;;;;95.93;37.78;;;;;;;;;;5085861;28;20398;-68
2023/03/02 07:46:37;;;;;;;98.97;36.97;;;;;;;;;;5104082;28;20119;-67
2023/03/02 07:49:04;;;;;;;99.72;36.28;;;;;;;;;;5083495;28;20084;-66
2023/03/02 07:51:30;;;;;;;92.70;35.22;;;;;;;;;;5104247;28;20163;-66
2023/03/02 07:53:56;;;;;;;91.93;35.75;;;;;;;;;;5107450;27;20092;-66
2023/03/02 07:56:22;;;;;;;94.43;32.63;;;;;;;;;;5106199;28;20050;-66
2023/03/02 07:58:49;;;;;;;90.88;34.25;;;;;;;;;;5102735;28;20042;-66
2023/03/02 08:01:15;;;;;;;93.32;34.60;;;;;;;;;;5107380;28;20512;-66
2023/03/02 08:03:41;;;;;;;100.78;34.78;;;;;;;;;;5103554;28;20443;-66
2023/03/02 08:06:08;;;;;;;107.10;36.50;;;;;;;;;;5087008;28;20130;-66
2023/03/02 08:08:35;;;;;;;105.30;37.65;;;;;;;;;;5105074;28;20053;-67
2023/03/02 08:11:05;;;;;;;103.18;35.72;;;;;;;;;;5106372;27;20390;-67
2023/03/02 08:13:31;;;;;;;92.75;34.47;;;;;;;;;;5083865;28;20500;-67
2023/03/02 08:16:00;;;;;;;100.47;34.17;;;;;;;;;;5081414;28;20111;-66
2023/03/02 08:18:26;;;;;;;90.45;34.00;;;;;;;;;;5099597;28;20059;-67
2023/03/02 08:20:53;;;;;;;106.90;36.22;;;;;;;;;;5102750;28;20051;-71
2023/03/02 08:23:19;;;;;;;88.78;34.40;;;;;;;;;;5081238;28;20084;-67
2023/03/02 08:25:46;;;;;;;99.10;34.80;;;;;;;;;;5101388;28;20055;-67
2023/03/02 08:28:12;;;;;;;101.70;35.92;;;;;;;;;;5103136;28;20122;-80
2023/03/02 08:30:38;;;;;;;90.47;33.33;;;;;;;;;;5101737;28;20059;-72
2023/03/02 08:33:05;;;;;;;94.57;34.00;;;;;;;;;;5100057;28;20130;-68
2023/03/02 08:35:31;;;;;;;92.20;36.00;;;;;;;;;;5100452;28;20126;-68
2023/03/02 08:37:58;;;;;;;92.88;33.85;;;;;;;;;;5100937;28;20046;-67
2023/03/02 08:40:24;;;;;;;86.35;32.95;;;;;;;;;;5100418;28;20058;-67
2023/03/02 08:42:55;;;;;;;103.63;33.65;;;;;;;;;;5101840;28;20109;-67
2023/03/02 08:45:23;;;;;;;86.50;34.65;;;;;;;;;;5099247;28;20039;-67
2023/03/02 08:47:49;;;;;;;79.53;30.48;;;;;;;;;;5101698;28;20043;-68
2023/03/02 08:50:15;;;;;;;83.75;31.05;;;;;;;;;;5102653;28;20043;-68
2023/03/02 08:52:42;;;;;;;74.95;30.42;;;;;;;;;;5101697;28;20433;-68
2023/03/02 08:55:09;;;;;;;86.13;33.33;;;;;;;;;;5097156;28;20044;-67
2023/03/02 08:57:35;;;;;;;78.82;31.30;;;;;;;;;;5102098;28;20055;-67
2023/03/02 09:00:01;;;;;;;77.05;32.03;;;;;;;;;;5099196;28;20047;-67
2023/03/02 09:02:28;;;;;;;72.95;30.15;;;;;;;;;;5103249;28;20061;-66
2023/03/02 09:04:54;;;;;;;65.53;27.75;;;;;;;;;;5101909;28;20387;-67
2023/03/02 09:07:21;;;;;;;67.63;26.63;;;;;;;;;;5102961;28;20032;-67
2023/03/02 09:09:47;;;;;;;75.90;29.33;;;;;;;;;;5102139;28;20283;-67
2023/03/02 09:12:13;;;;;;;71.65;28.40;;;;;;;;;;5101340;28;20052;-67
2023/03/02 09:14:39;;;;;;;65.05;26.95;;;;;;;;;;5101280;28;20085;-67
2023/03/02 09:17:05;;;;;;;66.30;28.20;;;;;;;;;;5082877;28;20111;-67
2023/03/02 09:19:40;;;;;;;74.55;29.65;;;;;;;;;;5085018;28;20399;-67
2023/03/02 09:22:06;;;;;;;74.38;30.20;;;;;;;;;;5101714;28;20043;-67
2023/03/02 09:24:33;;;;;;;77.55;31.45;;;;;;;;;;5083630;28;20055;-67
2023/03/02 09:26:59;;;;;;;78.30;30.02;;;;;;;;;;5101242;28;20045;-66
2023/03/02 09:29:25;;;;;;;79.30;33.25;;;;;;;;;;5101692;28;20478;-67
2023/03/02 09:31:51;;;;;;;74.10;30.60;;;;;;;;;;5101463;28;20264;-66
2023/03/02 09:34:17;;;;;;;71.18;30.98;;;;;;;;;;5101410;28;20589;-67
2023/03/02 09:36:44;;;;;;;66.57;29.30;;;;;;;;;;5100334;28;20063;-66
2023/03/02 09:39:11;;;;;;;72.05;29.88;;;;;;;;;;5101989;28;20103;-66
2023/03/02 09:41:56;;;;;;;82.28;32.85;;;;;;;;;;5101508;28;20070;-66
2023/03/02 09:44:37;;;;;;;69.25;30.35;;;;;;;;;;5079043;28;20170;-67
2023/03/02 09:47:07;;;;;;;83.00;33.08;;;;;;;;;;5100359;28;20403;-67
2023/03/02 09:49:46;;;;;;;75.60;32.65;;;;;;;;;;5098374;28;20032;-66
2023/03/02 09:52:28;;;;;;;81.70;35.00;;;;;;;;;;5099906;28;20458;-66
2023/03/02 09:54:54;;;;;;;77.72;30.67;;;;;;;;;;5083678;28;20043;-67
2023/03/02 09:57:23;;;;;;;69.30;30.08;;;;;;;;;;5083051;28;20371;-66
2023/03/02 09:59:54;;;;;;;70.25;29.75;;;;;;;;;;5099958;28;20415;-67
2023/03/02 10:02:23;;;;;;;68.63;30.48;;;;;;;;;;5098756;28;20055;-66
2023/03/02 10:04:51;;;;;;;56.95;26.98;;;;;;;;;;5081154;28;20074;-67
2023/03/02 10:07:27;;;;;;;53.38;25.27;;;;;;;;;;5082513;28;20387;-67
2023/03/02 10:09:55;;;;;;;64.50;27.63;;;;;;;;;;5080671;28;20039;-67
2023/03/02 10:12:33;;;;;;;58.47;25.50;;;;;;;;;;5100666;28;20143;-67
2023/03/02 10:15:03;;;;;;;57.08;27.33;;;;;;;;;;5099534;28;20093;-67
2023/03/02 10:17:41;;;;;;;63.97;27.35;;;;;;;;;;5080506;28;20966;-67
2023/03/02 10:20:11;;;;;;;64.07;29.35;;;;;;;;;;5096403;28;20042;-67
2023/03/02 10:22:41;;;;;;;59.25;27.85;;;;;;;;;;5097170;28;20044;-67
2023/03/02 10:25:16;;;;;;;58.63;27.27;;;;;;;;;;5098187;28;22095;-67
2023/03/02 10:27:43;;;;;;;59.22;26.85;;;;;;;;;;5101840;28;20134;-67
2023/03/02 10:30:10;;;;;;;58.10;25.92;;;;;;;;;;5103605;28;20043;-67
2023/03/02 10:32:41;;;;;;;61.38;28.48;;;;;;;;;;5103189;28;20073;-66
2023/03/02 10:35:13;;;;;;;56.50;28.20;;;;;;;;;;5106797;28;20043;-82
2023/03/02 10:37:40;;;;;;;56.28;27.83;;;;;;;;;;5083798;28;20528;-67
2023/03/02 10:40:06;;;;;;;59.17;26.42;;;;;;;;;;5104174;28;20131;-66
2023/03/02 10:42:36;;;;;;;55.67;26.25;;;;;;;;;;5080837;28;20050;-67
2023/03/02 10:45:23;;;;;;;53.40;25.80;;;;;;;;;;5083815;28;20043;-67
2023/03/02 10:47:59;;;;;;;60.15;25.38;;;;;;;;;;5104522;28;20047;-79
2023/03/02 12:29:50;;;;;;;22.35;13.82;;;;;;;;;;4933393;29;20051;-67
2023/03/02 12:32:23;;;;;;;21.10;13.48;;;;;;;;;;4931981;29;20095;-67
2023/03/02 12:34:55;;;;;;;22.70;14.07;;;;;;;;;;4905543;29;20100;-66
2023/03/02 12:37:23;;;;;;;22.58;12.95;;;;;;;;;;4922472;29;20119;-67
2023/03/02 12:40:00;;;;;;;23.02;13.32;;;;;;;;;;4927535;29;20126;-66
2023/03/02 12:42:29;;;;;;;18.90;12.20;;;;;;;;;;4924943;29;20107;-66
2023/03/02 12:44:56;;;;;;;18.60;12.00;;;;;;;;;;4925782;29;20059;-66
2023/03/02 12:47:28;;;;;;;17.60;11.57;;;;;;;;;;4927993;29;21518;-66
2023/03/02 12:50:00;;;;;;;18.13;12.43;;;;;;;;;;4910708;29;20047;-66
2023/03/02 12:52:28;;;;;;;20.38;11.27;;;;;;;;;;4930138;29;20097;-66
2023/03/02 12:54:58;;;;;;;17.92;10.82;;;;;;;;;;4914065;29;20102;-66
2023/03/02 12:57:25;;;;;;;19.05;12.15;;;;;;;;;;4929947;29;20052;-67
2023/03/02 12:59:52;;;;;;;20.73;11.32;;;;;;;;;;4929967;29;20039;-66
2023/03/02 13:02:20;;;;;;;17.42;11.60;;;;;;;;;;4927854;29;20044;-66
2023/03/02 13:04:54;;;;;;;15.82;10.85;;;;;;;;;;4931129;29;20494;-66
2023/03/02 13:07:23;;;;;;;16.42;10.45;;;;;;;;;;4915919;29;20377;-67
2023/03/02 13:09:51;;;;;;;18.67;11.10;;;;;;;;;;4931538;29;20095;-67
2023/03/02 13:12:17;;;;;;;14.40;8.82;;;;;;;;;;4911796;29;20086;-67
2023/03/02 13:14:45;;;;;;;15.07;10.50;;;;;;;;;;4930728;29;20039;-67
2023/03/02 13:17:21;;;;;;;15.82;9.68;;;;;;;;;;4931881;29;20099;-66
2023/03/02 13:19:49;;;;;;;16.48;10.57;;;;;;;;;;4930407;29;20510;-67
2023/03/02 13:22:15;;;;;;;14.75;10.05;;;;;;;;;;4932361;29;20517;-67
2023/03/02 13:24:50;;;;;;;13.05;8.73;;;;;;;;;;4931166;29;20058;-67
2023/03/02 13:27:17;;;;;;;13.98;8.63;;;;;;;;;;4930866;29;20043;-66
2023/03/02 13:29:44;;;;;;;12.38;8.02;;;;;;;;;;4933274;29;20119;-66
2023/03/02 13:32:15;;;;;;;11.90;8.48;;;;;;;;;;4943580;29;20063;-66
2023/03/02 13:34:48;;;;;;;14.50;9.40;;;;;;;;;;4932487;29;20507;-68
2023/03/02 13:37:19;;;;;;;13.75;7.68;;;;;;;;;;4932092;29;20570;-67
2023/03/02 13:39:54;;;;;;;9.85;7.35;;;;;;;;;;4930762;29;20058;-67
2023/03/02 13:42:25;;;;;;;11.95;7.53;;;;;;;;;;4931481;29;20122;-67
2023/03/02 13:44:51;;;;;;;11.05;7.70;;;;;;;;;;4926679;29;20052;-66
2023/03/02 13:47:22;;;;;;;12.65;8.15;;;;;;;;;;4930015;29;20133;-66
2023/03/02 13:49:48;;;;;;;12.88;8.35;;;;;;;;;;4932134;29;20052;-66
2023/03/02 13:52:27;;;;;;;12.85;8.63;;;;;;;;;;4926580;29;20051;-66
2023/03/02 13:54:53;;;;;;;15.77;9.38;;;;;;;;;;4945373;28;20055;-67
2023/03/02 13:57:26;;;;;;;17.23;8.75;;;;;;;;;;4944161;28;20059;-66
2023/03/02 13:59:52;;;;;;;11.90;8.17;;;;;;;;;;4931202;29;20115;-66
2023/03/02 14:02:27;;;;;;;16.73;8.25;;;;;;;;;;4928903;29;20083;-67
2023/03/02 14:04:54;;;;;;;12.95;7.68;;;;;;;;;;4931196;29;20048;-66
2023/03/02 14:07:20;;;;;;;11.15;7.88;;;;;;;;;;4929143;29;20035;-66
2023/03/02 14:09:46;;;;;;;10.50;6.13;;;;;;;;;;4932049;29;20079;-66
2023/03/02 14:12:28;;;;;;;12.32;6.80;;;;;;;;;;4931851;29;20046;-66
2023/03/02 14:14:55;;;;;;;11.10;6.47;;;;;;;;;;4926984;29;20044;-66
2023/03/02 14:17:23;;;;;;;12.02;7.65;;;;;;;;;;4918108;29;20452;-66
2023/03/02 14:19:51;;;;;;;11.10;7.03;;;;;;;;;;4919566;29;20048;-66
2023/03/02 14:22:18;;;;;;;15.63;8.25;;;;;;;;;;4925457;29;20138;-66
2023/03/02 14:24:46;;;;;;;13.13;6.55;;;;;;;;;;4924965;29;20147;-65
2023/03/02 14:27:14;;;;;;;13.07;7.25;;;;;;;;;;4926225;29;20517;-66
2023/03/02 14:29:40;;;;;;;11.35;7.57;;;;;;;;;;4924854;29;20158;-66
2023/03/02 14:32:09;;;;;;;19.65;7.90;;;;;;;;;;4930293;29;20059;-66
2023/03/02 14:34:35;;;;;;;11.88;8.07;;;;;;;;;;4929065;29;20043;-66
2023/03/02 14:37:04;;;;;;;12.57;7.88;;;;;;;;;;4928026;29;20040;-66
2023/03/02 14:39:33;;;;;;;11.40;7.03;;;;;;;;;;4909834;29;20114;-66
2023/03/02 14:41:59;;;;;;;12.30;8.23;;;;;;;;;;4923669;29;20126;-65
2023/03/02 14:44:25;;;;;;;12.88;7.03;;;;;;;;;;4925104;29;20087;-66
2023/03/02 14:46:51;;;;;;;12.23;7.63;;;;;;;;;;4924709;29;20114;-66
2023/03/02 14:49:18;;;;;;;12.77;7.80;;;;;;;;;;4929683;29;20055;-66
2023/03/02 14:51:48;;;;;;;14.15;6.65;;;;;;;;;;4930594;29;20410;-66
2023/03/02 14:54:16;;;;;;;11.43;7.18;;;;;;;;;;4903819;29;20127;-66
2023/03/02 14:56:43;;;;;;;13.13;6.88;;;;;;;;;;4920802;29;20051;-66
2023/03/02 14:59:12;;;;;;;14.77;7.38;;;;;;;;;;4920200;29;20040;-66
2023/03/02 15:01:38;;;;;;;10.95;6.90;;;;;;;;;;4926656;29;20511;-66
2023/03/02 15:04:05;;;;;;;12.77;7.70;;;;;;;;;;4927210;29;20055;-66
2023/03/02 15:06:32;;;;;;;14.25;7.70;;;;;;;;;;4906115;29;20048;-66
2023/03/02 15:08:59;;;;;;;12.52;8.18;;;;;;;;;;4906122;29;20142;-66
2023/03/02 15:11:27;;;;;;;11.45;6.80;;;;;;;;;;4920018;29;20051;-66
2023/03/02 15:13:53;;;;;;;10.23;6.85;;;;;;;;;;4913293;29;20079;-66
2023/03/02 15:16:20;;;;;;;12.55;8.02;;;;;;;;;;4912702;29;20052;-67
2023/03/02 15:18:48;;;;;;;11.68;6.93;;;;;;;;;;4927678;29;20051;-67
2023/03/02 15:21:17;;;;;;;13.32;7.53;;;;;;;;;;4927038;29;20051;-68
2023/03/02 15:23:43;;;;;;;12.73;7.90;;;;;;;;;;4926514;29;20056;-68
2023/03/02 15:26:10;;;;;;;13.32;7.22;;;;;;;;;;4925361;29;20048;-67
2023/03/02 15:28:36;;;;;;;11.45;6.63;;;;;;;;;;4925582;29;20123;-67
2023/03/02 15:31:06;;;;;;;9.45;6.50;;;;;;;;;;4926697;29;20503;-67
2023/03/02 15:33:33;;;;;;;10.30;7.05;;;;;;;;;;4927391;29;20063;-66
2023/03/02 15:35:59;;;;;;;11.07;7.32;;;;;;;;;;4925323;29;20047;-66
2023/03/02 15:38:26;;;;;;;10.38;6.78;;;;;;;;;;4923725;29;20155;-66
2023/03/02 15:40:52;;;;;;;12.30;7.20;;;;;;;;;;4928128;29;20049;-66
2023/03/02 15:43:18;;;;;;;12.20;6.95;;;;;;;;;;4911560;29;20044;-66
2023/03/02 15:45:45;;;;;;;13.02;6.93;;;;;;;;;;4925480;29;20035;-67
2023/03/02 15:48:11;;;;;;;12.13;7.43;;;;;;;;;;4910108;29;20095;-66
2023/03/02 15:50:37;;;;;;;11.73;6.43;;;;;;;;;;4923672;29;20040;-67
2023/03/02 15:53:04;;;;;;;14.57;6.78;;;;;;;;;;4916065;29;20048;-66
2023/03/02 15:55:30;;;;;;;13.02;8.30;;;;;;;;;;4920667;29;20044;-68
2023/03/02 15:57:58;;;;;;;17.10;8.63;;;;;;;;;;4906443;29;20122;-66
2023/03/02 16:00:25;;;;;;;12.55;7.03;;;;;;;;;;4924577;29;20047;-68